sensor_id;sensor_type;location;lat;lon;timestamp;temperature;humidity
59923;DHT22;45778;51.142;3.732;2022-10-31T00:01:11;13.60;99.90
59923;DHT22;45778;51.142;3.732;2022-10-31T00:03:36;13.70;99.90
59923;DHT22;45778;51.142;3.732;2022-10-31T00:06:02;13.60;99.90
59923;DHT22;45778;51.142;3.732;2022-10-31T00:08:28;13.50;99.90
59923;DHT22;45778;51.142;3.732;2022-10-31T00:10:53;13.50;99.90
59923;DHT22;45778;51.142;3.732;2022-10-31T00:13:19;13.50;99.90
59923;DHT22;45778;51.142;3.732;2022-10-31T00:15:45;13.60;99.90
59923;DHT22;45778;51.142;3.732;2022-10-31T00:18:11;13.50;99.90
59923;DHT22;45778;51.142;3.732;2022-10-31T00:20:38;13.40;99.90
59923;DHT22;45778;51.142;3.732;2022-10-31T00:23:05;13.50;99.90
59923;DHT22;45778;51.142;3.732;2022-10-31T00:25:36;13.40;99.90
59923;DHT22;45778;51.142;3.732;2022-10-31T00:28:03;13.40;99.90
59923;DHT22;45778;51.142;3.732;2022-10-31T00:30:29;13.30;99.90
59923;DHT22;45778;51.142;3.732;2022-10-31T00:32:55;13.30;99.90
59923;DHT22;45778;51.142;3.732;2022-10-31T00:35:20;13.20;99.90
59923;DHT22;45778;51.142;3.732;2022-10-31T00:37:46;13.10;99.90
59923;DHT22;45778;51.142;3.732;2022-10-31T00:40:11;13.10;99.90
59923;DHT22;45778;51.142;3.732;2022-10-31T00:42:39;13.10;99.90
59923;DHT22;45778;51.142;3.732;2022-10-31T00:45:05;13.00;99.90
59923;DHT22;45778;51.142;3.732;2022-10-31T00:47:30;13.00;99.90
59923;DHT22;45778;51.142;3.732;2022-10-31T00:49:56;12.90;99.90
59923;DHT22;45778;51.142;3.732;2022-10-31T00:52:21;12.80;99.90
59923;DHT22;45778;51.142;3.732;2022-10-31T00:54:47;12.80;99.90
59923;DHT22;45778;51.142;3.732;2022-10-31T00:57:13;12.80;99.90
59923;DHT22;45778;51.142;3.732;2022-10-31T00:59:38;12.90;99.90
59923;DHT22;45778;51.142;3.732;2022-10-31T01:02:04;12.80;99.90
59923;DHT22;45778;51.142;3.732;2022-10-31T01:04:29;12.70;99.90
59923;DHT22;45778;51.142;3.732;2022-10-31T01:06:55;12.60;99.90
59923;DHT22;45778;51.142;3.732;2022-10-31T01:09:20;12.80;99.90
59923;DHT22;45778;51.142;3.732;2022-10-31T01:11:46;12.70;99.90
59923;DHT22;45778;51.142;3.732;2022-10-31T01:14:12;12.60;99.90
59923;DHT22;45778;51.142;3.732;2022-10-31T01:16:37;12.60;99.90
59923;DHT22;45778;51.142;3.732;2022-10-31T01:19:03;12.50;99.90
59923;DHT22;45778;51.142;3.732;2022-10-31T01:21:29;12.40;99.90
59923;DHT22;45778;51.142;3.732;2022-10-31T01:23:55;12.50;99.90
59923;DHT22;45778;51.142;3.732;2022-10-31T01:26:24;12.50;99.90
59923;DHT22;45778;51.142;3.732;2022-10-31T01:28:51;12.50;99.90
59923;DHT22;45778;51.142;3.732;2022-10-31T01:31:19;12.50;99.90
59923;DHT22;45778;51.142;3.732;2022-10-31T01:33:45;12.40;99.90
59923;DHT22;45778;51.142;3.732;2022-10-31T01:36:20;12.30;99.90
59923;DHT22;45778;51.142;3.732;2022-10-31T01:38:47;12.30;99.90
59923;DHT22;45778;51.142;3.732;2022-10-31T01:41:16;12.20;99.90
59923;DHT22;45778;51.142;3.732;2022-10-31T01:43:53;12.10;99.90
59923;DHT22;45778;51.142;3.732;2022-10-31T01:48:52;12.30;99.90
59923;DHT22;45778;51.142;3.732;2022-10-31T01:51:20;12.30;99.90
59923;DHT22;45778;51.142;3.732;2022-10-31T01:53:48;12.30;99.90
59923;DHT22;45778;51.142;3.732;2022-10-31T01:56:16;12.30;99.90
59923;DHT22;45778;51.142;3.732;2022-10-31T01:58:44;12.30;99.90
59923;DHT22;45778;51.142;3.732;2022-10-31T02:01:13;12.30;99.90
59923;DHT22;45778;51.142;3.732;2022-10-31T02:03:39;12.30;99.90
59923;DHT22;45778;51.142;3.732;2022-10-31T02:06:07;12.40;99.90
59923;DHT22;45778;51.142;3.732;2022-10-31T02:08:37;12.40;99.90
59923;DHT22;45778;51.142;3.732;2022-10-31T02:11:05;12.20;99.90
59923;DHT22;45778;51.142;3.732;2022-10-31T02:13:33;12.20;99.90
59923;DHT22;45778;51.142;3.732;2022-10-31T02:16:00;12.30;99.90
59923;DHT22;45778;51.142;3.732;2022-10-31T02:18:28;12.40;99.90
59923;DHT22;45778;51.142;3.732;2022-10-31T02:21:11;12.40;99.90
59923;DHT22;45778;51.142;3.732;2022-10-31T02:26:49;12.40;99.90
59923;DHT22;45778;51.142;3.732;2022-10-31T02:33:07;12.20;99.90
59923;DHT22;45778;51.142;3.732;2022-10-31T02:35:31;12.40;99.90
59923;DHT22;45778;51.142;3.732;2022-10-31T02:38:09;12.40;99.90
59923;DHT22;45778;51.142;3.732;2022-10-31T02:41:13;12.50;99.90
59923;DHT22;45778;51.142;3.732;2022-10-31T02:44:28;12.40;99.90
59923;DHT22;45778;51.142;3.732;2022-10-31T02:47:03;12.40;99.90
59923;DHT22;45778;51.142;3.732;2022-10-31T02:49:47;12.40;99.90
59923;DHT22;45778;51.142;3.732;2022-10-31T02:52:22;12.50;99.90
59923;DHT22;45778;51.142;3.732;2022-10-31T02:54:49;12.40;99.90
59923;DHT22;45778;51.142;3.732;2022-10-31T02:57:20;12.40;99.90
59923;DHT22;45778;51.142;3.732;2022-10-31T02:59:49;12.40;99.90
59923;DHT22;45778;51.142;3.732;2022-10-31T03:15:32;12.10;99.90
59923;DHT22;45778;51.142;3.732;2022-10-31T03:18:08;12.00;99.90
59923;DHT22;45778;51.142;3.732;2022-10-31T03:20:45;11.90;99.90
59923;DHT22;45778;51.142;3.732;2022-10-31T03:23:15;11.90;99.90
59923;DHT22;45778;51.142;3.732;2022-10-31T03:25:42;11.90;99.90
59923;DHT22;45778;51.142;3.732;2022-10-31T03:28:09;11.90;99.90
59923;DHT22;45778;51.142;3.732;2022-10-31T03:30:39;11.80;99.90
59923;DHT22;45778;51.142;3.732;2022-10-31T03:33:08;11.90;99.90
59923;DHT22;45778;51.142;3.732;2022-10-31T03:35:35;11.80;99.90
59923;DHT22;45778;51.142;3.732;2022-10-31T03:38:02;11.80;99.90
59923;DHT22;45778;51.142;3.732;2022-10-31T03:40:29;11.70;99.90
59923;DHT22;45778;51.142;3.732;2022-10-31T03:43:00;11.70;99.90
59923;DHT22;45778;51.142;3.732;2022-10-31T03:45:30;11.60;99.90
59923;DHT22;45778;51.142;3.732;2022-10-31T03:47:58;11.50;99.90
59923;DHT22;45778;51.142;3.732;2022-10-31T03:50:27;11.50;99.90
59923;DHT22;45778;51.142;3.732;2022-10-31T03:52:55;11.40;99.90
59923;DHT22;45778;51.142;3.732;2022-10-31T03:55:30;11.50;99.90
59923;DHT22;45778;51.142;3.732;2022-10-31T03:58:05;11.40;99.90
59923;DHT22;45778;51.142;3.732;2022-10-31T04:00:34;11.40;99.90
59923;DHT22;45778;51.142;3.732;2022-10-31T04:03:12;11.40;99.90
59923;DHT22;45778;51.142;3.732;2022-10-31T04:05:41;11.50;99.90
59923;DHT22;45778;51.142;3.732;2022-10-31T04:08:11;11.40;99.90
59923;DHT22;45778;51.142;3.732;2022-10-31T04:10:41;11.50;99.90
59923;DHT22;45778;51.142;3.732;2022-10-31T04:13:12;11.40;99.90
59923;DHT22;45778;51.142;3.732;2022-10-31T04:15:38;11.40;99.90
59923;DHT22;45778;51.142;3.732;2022-10-31T04:18:05;11.40;99.90
59923;DHT22;45778;51.142;3.732;2022-10-31T04:20:35;11.40;99.90
59923;DHT22;45778;51.142;3.732;2022-10-31T04:23:03;11.30;99.90
59923;DHT22;45778;51.142;3.732;2022-10-31T04:25:29;11.30;99.90
59923;DHT22;45778;51.142;3.732;2022-10-31T04:27:55;11.30;99.90
59923;DHT22;45778;51.142;3.732;2022-10-31T04:30:21;11.20;99.90
59923;DHT22;45778;51.142;3.732;2022-10-31T04:32:47;11.20;99.90
59923;DHT22;45778;51.142;3.732;2022-10-31T04:35:12;11.20;99.90
59923;DHT22;45778;51.142;3.732;2022-10-31T04:37:38;11.20;99.90
59923;DHT22;45778;51.142;3.732;2022-10-31T04:40:05;11.20;99.90
59923;DHT22;45778;51.142;3.732;2022-10-31T04:42:31;11.10;99.90
59923;DHT22;45778;51.142;3.732;2022-10-31T04:44:56;11.10;99.90
59923;DHT22;45778;51.142;3.732;2022-10-31T04:47:22;11.00;99.90
59923;DHT22;45778;51.142;3.732;2022-10-31T04:49:48;10.90;99.90
59923;DHT22;45778;51.142;3.732;2022-10-31T04:52:14;10.90;99.90
59923;DHT22;45778;51.142;3.732;2022-10-31T04:54:39;10.90;99.90
59923;DHT22;45778;51.142;3.732;2022-10-31T04:57:06;10.80;99.90
59923;DHT22;45778;51.142;3.732;2022-10-31T04:59:31;10.90;99.90
59923;DHT22;45778;51.142;3.732;2022-10-31T05:01:57;11.00;99.90
59923;DHT22;45778;51.142;3.732;2022-10-31T05:04:22;10.90;99.90
59923;DHT22;45778;51.142;3.732;2022-10-31T05:06:48;10.90;99.90
59923;DHT22;45778;51.142;3.732;2022-10-31T05:09:14;10.90;99.90
59923;DHT22;45778;51.142;3.732;2022-10-31T05:11:39;10.80;99.90
59923;DHT22;45778;51.142;3.732;2022-10-31T05:14:05;10.80;99.90
59923;DHT22;45778;51.142;3.732;2022-10-31T05:16:30;10.70;99.90
59923;DHT22;45778;51.142;3.732;2022-10-31T05:18:56;10.80;99.90
59923;DHT22;45778;51.142;3.732;2022-10-31T05:21:22;10.80;99.90
59923;DHT22;45778;51.142;3.732;2022-10-31T05:23:47;10.80;99.90
59923;DHT22;45778;51.142;3.732;2022-10-31T05:26:13;10.70;99.90
59923;DHT22;45778;51.142;3.732;2022-10-31T05:28:38;10.70;99.90
59923;DHT22;45778;51.142;3.732;2022-10-31T05:31:04;10.60;99.90
59923;DHT22;45778;51.142;3.732;2022-10-31T05:33:30;10.60;99.90
59923;DHT22;45778;51.142;3.732;2022-10-31T05:35:55;10.60;99.90
59923;DHT22;45778;51.142;3.732;2022-10-31T05:38:21;10.60;99.90
59923;DHT22;45778;51.142;3.732;2022-10-31T05:40:47;10.60;99.90
59923;DHT22;45778;51.142;3.732;2022-10-31T05:43:12;10.60;99.90
59923;DHT22;45778;51.142;3.732;2022-10-31T05:45:38;10.60;99.90
59923;DHT22;45778;51.142;3.732;2022-10-31T05:48:04;10.50;99.90
59923;DHT22;45778;51.142;3.732;2022-10-31T05:50:30;10.50;99.90
59923;DHT22;45778;51.142;3.732;2022-10-31T05:52:58;10.40;99.90
59923;DHT22;45778;51.142;3.732;2022-10-31T05:55:24;10.40;99.90
59923;DHT22;45778;51.142;3.732;2022-10-31T05:57:51;10.30;99.90
59923;DHT22;45778;51.142;3.732;2022-10-31T06:00:18;10.40;99.90
59923;DHT22;45778;51.142;3.732;2022-10-31T06:02:43;10.40;99.90
59923;DHT22;45778;51.142;3.732;2022-10-31T06:05:09;10.40;99.90
59923;DHT22;45778;51.142;3.732;2022-10-31T06:07:35;10.40;99.90
59923;DHT22;45778;51.142;3.732;2022-10-31T06:10:03;10.40;99.90
59923;DHT22;45778;51.142;3.732;2022-10-31T06:12:29;10.30;99.90
59923;DHT22;45778;51.142;3.732;2022-10-31T06:14:55;10.30;99.90
59923;DHT22;45778;51.142;3.732;2022-10-31T06:17:20;10.30;99.90
59923;DHT22;45778;51.142;3.732;2022-10-31T06:19:46;10.40;99.90
59923;DHT22;45778;51.142;3.732;2022-10-31T06:22:12;10.40;99.90
59923;DHT22;45778;51.142;3.732;2022-10-31T06:24:38;10.40;99.90
59923;DHT22;45778;51.142;3.732;2022-10-31T06:27:04;10.60;99.90
59923;DHT22;45778;51.142;3.732;2022-10-31T06:29:30;10.60;99.90
59923;DHT22;45778;51.142;3.732;2022-10-31T06:31:56;10.70;99.90
59923;DHT22;45778;51.142;3.732;2022-10-31T06:34:22;10.70;99.90
59923;DHT22;45778;51.142;3.732;2022-10-31T06:36:47;10.80;99.90
59923;DHT22;45778;51.142;3.732;2022-10-31T06:39:14;10.90;99.90
59923;DHT22;45778;51.142;3.732;2022-10-31T06:41:39;11.00;99.90
59923;DHT22;45778;51.142;3.732;2022-10-31T06:44:07;10.90;99.90
59923;DHT22;45778;51.142;3.732;2022-10-31T06:46:33;10.90;99.90
59923;DHT22;45778;51.142;3.732;2022-10-31T06:48:59;10.90;99.90
59923;DHT22;45778;51.142;3.732;2022-10-31T06:51:25;11.10;99.90
59923;DHT22;45778;51.142;3.732;2022-10-31T06:53:50;11.10;99.90
59923;DHT22;45778;51.142;3.732;2022-10-31T06:56:16;11.10;99.90
59923;DHT22;45778;51.142;3.732;2022-10-31T06:58:42;11.10;99.90
59923;DHT22;45778;51.142;3.732;2022-10-31T07:01:07;11.20;99.90
59923;DHT22;45778;51.142;3.732;2022-10-31T07:03:33;11.30;99.90
59923;DHT22;45778;51.142;3.732;2022-10-31T07:05:59;11.30;99.90
59923;DHT22;45778;51.142;3.732;2022-10-31T07:08:25;11.40;99.90
59923;DHT22;45778;51.142;3.732;2022-10-31T07:10:53;11.40;99.90
59923;DHT22;45778;51.142;3.732;2022-10-31T07:13:19;11.40;99.90
59923;DHT22;45778;51.142;3.732;2022-10-31T07:15:50;11.60;99.90
59923;DHT22;45778;51.142;3.732;2022-10-31T07:18:16;11.50;99.90
59923;DHT22;45778;51.142;3.732;2022-10-31T07:20:41;11.50;99.90
59923;DHT22;45778;51.142;3.732;2022-10-31T07:23:09;11.50;99.90
59923;DHT22;45778;51.142;3.732;2022-10-31T07:25:35;11.60;99.90
59923;DHT22;45778;51.142;3.732;2022-10-31T07:28:00;11.70;99.90
59923;DHT22;45778;51.142;3.732;2022-10-31T07:30:26;11.70;99.90
59923;DHT22;45778;51.142;3.732;2022-10-31T07:32:52;11.90;99.90
59923;DHT22;45778;51.142;3.732;2022-10-31T07:35:19;12.00;99.90
59923;DHT22;45778;51.142;3.732;2022-10-31T07:37:45;12.00;99.90
59923;DHT22;45778;51.142;3.732;2022-10-31T07:40:11;12.10;99.90
59923;DHT22;45778;51.142;3.732;2022-10-31T07:42:48;12.10;99.90
59923;DHT22;45778;51.142;3.732;2022-10-31T07:45:16;12.30;99.90
59923;DHT22;45778;51.142;3.732;2022-10-31T07:47:47;12.40;99.90
59923;DHT22;45778;51.142;3.732;2022-10-31T07:50:17;12.60;99.90
59923;DHT22;45778;51.142;3.732;2022-10-31T07:52:44;12.60;99.90
59923;DHT22;45778;51.142;3.732;2022-10-31T07:55:10;12.60;99.90
59923;DHT22;45778;51.142;3.732;2022-10-31T07:57:36;12.70;99.90
59923;DHT22;45778;51.142;3.732;2022-10-31T08:00:04;12.80;99.90
59923;DHT22;45778;51.142;3.732;2022-10-31T08:02:30;12.90;99.90
59923;DHT22;45778;51.142;3.732;2022-10-31T08:04:55;12.90;99.90
59923;DHT22;45778;51.142;3.732;2022-10-31T08:07:21;12.90;99.90
59923;DHT22;45778;51.142;3.732;2022-10-31T08:09:47;13.00;99.90
59923;DHT22;45778;51.142;3.732;2022-10-31T08:12:13;12.90;99.90
59923;DHT22;45778;51.142;3.732;2022-10-31T08:14:38;12.80;99.90
59923;DHT22;45778;51.142;3.732;2022-10-31T08:17:04;12.80;99.90
59923;DHT22;45778;51.142;3.732;2022-10-31T08:19:30;13.00;99.90
59923;DHT22;45778;51.142;3.732;2022-10-31T08:21:56;13.00;99.90
59923;DHT22;45778;51.142;3.732;2022-10-31T08:24:22;13.10;99.90
59923;DHT22;45778;51.142;3.732;2022-10-31T08:26:48;13.10;99.90
59923;DHT22;45778;51.142;3.732;2022-10-31T08:29:13;13.30;99.90
59923;DHT22;45778;51.142;3.732;2022-10-31T08:31:40;13.30;99.90
59923;DHT22;45778;51.142;3.732;2022-10-31T08:34:05;13.40;99.90
59923;DHT22;45778;51.142;3.732;2022-10-31T08:36:31;13.40;99.90
59923;DHT22;45778;51.142;3.732;2022-10-31T08:38:57;13.50;99.90
59923;DHT22;45778;51.142;3.732;2022-10-31T08:41:22;13.50;99.90
59923;DHT22;45778;51.142;3.732;2022-10-31T08:43:48;13.50;99.90
59923;DHT22;45778;51.142;3.732;2022-10-31T08:46:13;13.50;99.90
59923;DHT22;45778;51.142;3.732;2022-10-31T08:48:39;13.50;99.90
59923;DHT22;45778;51.142;3.732;2022-10-31T08:51:05;13.60;99.90
59923;DHT22;45778;51.142;3.732;2022-10-31T08:53:31;13.80;99.90
59923;DHT22;45778;51.142;3.732;2022-10-31T08:55:56;14.00;99.90
59923;DHT22;45778;51.142;3.732;2022-10-31T08:58:23;13.70;99.90
59923;DHT22;45778;51.142;3.732;2022-10-31T09:00:51;13.70;99.90
59923;DHT22;45778;51.142;3.732;2022-10-31T09:03:25;13.80;99.90
59923;DHT22;45778;51.142;3.732;2022-10-31T09:05:55;13.90;99.90
59923;DHT22;45778;51.142;3.732;2022-10-31T09:08:21;14.10;99.90
59923;DHT22;45778;51.142;3.732;2022-10-31T09:10:47;14.20;99.90
59923;DHT22;45778;51.142;3.732;2022-10-31T09:13:15;14.00;99.90
59923;DHT22;45778;51.142;3.732;2022-10-31T09:15:43;14.30;99.90
59923;DHT22;45778;51.142;3.732;2022-10-31T09:18:10;14.60;99.90
59923;DHT22;45778;51.142;3.732;2022-10-31T09:20:37;14.60;99.90
59923;DHT22;45778;51.142;3.732;2022-10-31T09:23:10;14.70;99.90
59923;DHT22;45778;51.142;3.732;2022-10-31T09:25:36;14.60;99.90
59923;DHT22;45778;51.142;3.732;2022-10-31T09:28:03;14.30;99.90
59923;DHT22;45778;51.142;3.732;2022-10-31T09:30:31;14.40;99.90
59923;DHT22;45778;51.142;3.732;2022-10-31T09:33:02;14.50;99.90
59923;DHT22;45778;51.142;3.732;2022-10-31T09:35:28;14.70;99.90
59923;DHT22;45778;51.142;3.732;2022-10-31T09:37:58;14.70;99.90
59923;DHT22;45778;51.142;3.732;2022-10-31T09:51:18;14.80;99.90
59923;DHT22;45778;51.142;3.732;2022-10-31T09:54:00;15.00;99.90
59923;DHT22;45778;51.142;3.732;2022-10-31T09:56:28;15.20;99.90
59923;DHT22;45778;51.142;3.732;2022-10-31T09:58:56;15.30;99.90
59923;DHT22;45778;51.142;3.732;2022-10-31T10:01:30;15.10;99.90
59923;DHT22;45778;51.142;3.732;2022-10-31T10:04:01;15.20;99.90
59923;DHT22;45778;51.142;3.732;2022-10-31T10:06:31;15.10;99.90
59923;DHT22;45778;51.142;3.732;2022-10-31T10:08:57;15.10;99.90
59923;DHT22;45778;51.142;3.732;2022-10-31T10:20:10;15.40;99.90
59923;DHT22;45778;51.142;3.732;2022-10-31T10:25:32;16.30;99.90
59923;DHT22;45778;51.142;3.732;2022-10-31T10:28:18;16.70;99.90
59923;DHT22;45778;51.142;3.732;2022-10-31T10:30:53;16.80;99.90
59923;DHT22;45778;51.142;3.732;2022-10-31T10:33:24;17.00;99.90
59923;DHT22;45778;51.142;3.732;2022-10-31T10:35:59;17.30;99.90
59923;DHT22;45778;51.142;3.732;2022-10-31T10:38:49;17.30;99.90
59923;DHT22;45778;51.142;3.732;2022-10-31T10:41:22;17.40;99.90
59923;DHT22;45778;51.142;3.732;2022-10-31T10:43:52;17.60;99.90
59923;DHT22;45778;51.142;3.732;2022-10-31T10:49:19;17.40;99.90
59923;DHT22;45778;51.142;3.732;2022-10-31T10:52:04;17.40;99.90
59923;DHT22;45778;51.142;3.732;2022-10-31T11:00:15;17.80;99.90
59923;DHT22;45778;51.142;3.732;2022-10-31T11:02:42;18.20;99.90
59923;DHT22;45778;51.142;3.732;2022-10-31T11:05:24;18.80;99.90
59923;DHT22;45778;51.142;3.732;2022-10-31T11:07:50;19.10;99.90
59923;DHT22;45778;51.142;3.732;2022-10-31T11:10:16;19.40;99.90
59923;DHT22;45778;51.142;3.732;2022-10-31T11:15:26;19.20;99.90
59923;DHT22;45778;51.142;3.732;2022-10-31T11:17:54;19.20;99.90
59923;DHT22;45778;51.142;3.732;2022-10-31T11:22:49;19.30;99.90
59923;DHT22;45778;51.142;3.732;2022-10-31T11:25:26;19.40;99.90
59923;DHT22;45778;51.142;3.732;2022-10-31T11:30:26;19.50;99.90
59923;DHT22;45778;51.142;3.732;2022-10-31T11:32:52;19.30;99.90
59923;DHT22;45778;51.142;3.732;2022-10-31T11:35:20;19.30;99.90
59923;DHT22;45778;51.142;3.732;2022-10-31T11:37:48;19.30;99.90
59923;DHT22;45778;51.142;3.732;2022-10-31T11:42:42;19.50;99.90
59923;DHT22;45778;51.142;3.732;2022-10-31T11:47:47;19.10;99.90
59923;DHT22;45778;51.142;3.732;2022-10-31T11:50:23;19.00;99.90
59923;DHT22;45778;51.142;3.732;2022-10-31T11:52:50;18.80;99.90
59923;DHT22;45778;51.142;3.732;2022-10-31T11:55:31;19.00;99.90
59923;DHT22;45778;51.142;3.732;2022-10-31T11:57:57;18.50;99.90
59923;DHT22;45778;51.142;3.732;2022-10-31T12:00:29;18.90;99.90
59923;DHT22;45778;51.142;3.732;2022-10-31T12:08:34;18.80;99.90
59923;DHT22;45778;51.142;3.732;2022-10-31T12:11:08;19.00;99.90
59923;DHT22;45778;51.142;3.732;2022-10-31T12:13:37;19.30;99.90
59923;DHT22;45778;51.142;3.732;2022-10-31T12:21:42;19.20;99.90
59923;DHT22;45778;51.142;3.732;2022-10-31T12:26:54;19.50;99.90
59923;DHT22;45778;51.142;3.732;2022-10-31T12:32:28;19.70;99.90
59923;DHT22;45778;51.142;3.732;2022-10-31T12:45:48;20.00;99.90
59923;DHT22;45778;51.142;3.732;2022-10-31T12:54:19;19.70;99.90
59923;DHT22;45778;51.142;3.732;2022-10-31T12:59:37;19.50;99.90
59923;DHT22;45778;51.142;3.732;2022-10-31T13:02:18;19.30;99.90
59923;DHT22;45778;51.142;3.732;2022-10-31T13:05:03;19.20;99.90
59923;DHT22;45778;51.142;3.732;2022-10-31T13:07:35;19.10;99.90
59923;DHT22;45778;51.142;3.732;2022-10-31T13:10:05;19.00;99.90
59923;DHT22;45778;51.142;3.732;2022-10-31T13:12:32;19.10;99.90
59923;DHT22;45778;51.142;3.732;2022-10-31T13:15:15;18.90;99.90
59923;DHT22;45778;51.142;3.732;2022-10-31T13:18:04;18.70;99.90
59923;DHT22;45778;51.142;3.732;2022-10-31T13:20:43;18.40;99.90
59923;DHT22;45778;51.142;3.732;2022-10-31T13:25:54;18.30;99.90
59923;DHT22;45778;51.142;3.732;2022-10-31T13:30:50;18.70;99.90
59923;DHT22;45778;51.142;3.732;2022-10-31T13:33:24;19.20;99.90
59923;DHT22;45778;51.142;3.732;2022-10-31T13:38:56;22.10;99.90
59923;DHT22;45778;51.142;3.732;2022-10-31T13:46:41;24.90;99.90
59923;DHT22;45778;51.142;3.732;2022-10-31T13:49:37;24.40;99.90
59923;DHT22;45778;51.142;3.732;2022-10-31T13:54:36;24.30;99.90
59923;DHT22;45778;51.142;3.732;2022-10-31T13:57:07;25.30;99.90
59923;DHT22;45778;51.142;3.732;2022-10-31T13:59:38;25.20;99.00
59923;DHT22;45778;51.142;3.732;2022-10-31T14:02:14;25.10;99.30
59923;DHT22;45778;51.142;3.732;2022-10-31T14:04:57;25.70;99.10
59923;DHT22;45778;51.142;3.732;2022-10-31T14:07:24;26.30;98.30
59923;DHT22;45778;51.142;3.732;2022-10-31T14:09:55;27.50;97.20
59923;DHT22;45778;51.142;3.732;2022-10-31T14:12:41;28.20;95.90
59923;DHT22;45778;51.142;3.732;2022-10-31T14:15:26;28.90;94.60
59923;DHT22;45778;51.142;3.732;2022-10-31T14:18:02;29.40;93.70
59923;DHT22;45778;51.142;3.732;2022-10-31T14:29:21;24.80;97.00
59923;DHT22;45778;51.142;3.732;2022-10-31T14:32:22;23.60;98.60
59923;DHT22;45778;51.142;3.732;2022-10-31T14:34:57;22.70;99.90
59923;DHT22;45778;51.142;3.732;2022-10-31T14:38:01;21.40;99.90
59923;DHT22;45778;51.142;3.732;2022-10-31T14:43:51;21.00;99.90
59923;DHT22;45778;51.142;3.732;2022-10-31T14:46:23;21.00;99.90
59923;DHT22;45778;51.142;3.732;2022-10-31T14:49:27;20.80;99.90
59923;DHT22;45778;51.142;3.732;2022-10-31T14:51:58;20.50;99.90
59923;DHT22;45778;51.142;3.732;2022-10-31T14:54:29;20.30;99.90
59923;DHT22;45778;51.142;3.732;2022-10-31T14:57:02;20.30;99.90
59923;DHT22;45778;51.142;3.732;2022-10-31T14:59:32;20.10;99.90
59923;DHT22;45778;51.142;3.732;2022-10-31T15:02:07;20.30;99.90
59923;DHT22;45778;51.142;3.732;2022-10-31T15:04:35;20.70;99.90
59923;DHT22;45778;51.142;3.732;2022-10-31T15:07:10;20.80;99.90
59923;DHT22;45778;51.142;3.732;2022-10-31T15:09:36;21.00;99.90
59923;DHT22;45778;51.142;3.732;2022-10-31T15:12:24;20.90;99.90
59923;DHT22;45778;51.142;3.732;2022-10-31T15:14:50;21.20;99.90
59923;DHT22;45778;51.142;3.732;2022-10-31T15:17:16;21.10;99.90
59923;DHT22;45778;51.142;3.732;2022-10-31T15:19:42;20.80;99.90
59923;DHT22;45778;51.142;3.732;2022-10-31T15:22:14;20.40;99.90
59923;DHT22;45778;51.142;3.732;2022-10-31T15:24:41;20.20;99.90
59923;DHT22;45778;51.142;3.732;2022-10-31T15:27:12;19.90;99.90
59923;DHT22;45778;51.142;3.732;2022-10-31T15:29:50;19.90;99.90
59923;DHT22;45778;51.142;3.732;2022-10-31T15:32:27;20.30;99.90
59923;DHT22;45778;51.142;3.732;2022-10-31T15:34:54;20.60;99.90
59923;DHT22;45778;51.142;3.732;2022-10-31T15:37:23;20.50;99.90
59923;DHT22;45778;51.142;3.732;2022-10-31T15:39:50;19.90;99.90
59923;DHT22;45778;51.142;3.732;2022-10-31T15:42:20;19.60;99.90
59923;DHT22;45778;51.142;3.732;2022-10-31T15:44:51;19.70;99.90
59923;DHT22;45778;51.142;3.732;2022-10-31T15:47:22;19.30;99.90
59923;DHT22;45778;51.142;3.732;2022-10-31T15:49:55;19.20;99.90
59923;DHT22;45778;51.142;3.732;2022-10-31T15:52:45;19.00;99.90
59923;DHT22;45778;51.142;3.732;2022-10-31T15:55:24;18.80;99.90
59923;DHT22;45778;51.142;3.732;2022-10-31T15:57:59;18.50;99.90
59923;DHT22;45778;51.142;3.732;2022-10-31T16:05:44;18.10;99.90
59923;DHT22;45778;51.142;3.732;2022-10-31T16:11:00;17.60;99.90
59923;DHT22;45778;51.142;3.732;2022-10-31T16:13:30;17.40;99.90
59923;DHT22;45778;51.142;3.732;2022-10-31T16:16:02;17.10;99.90
59923;DHT22;45778;51.142;3.732;2022-10-31T16:18:30;17.20;99.90
59923;DHT22;45778;51.142;3.732;2022-10-31T16:21:00;17.10;99.90
59923;DHT22;45778;51.142;3.732;2022-10-31T16:23:26;17.10;99.90
59923;DHT22;45778;51.142;3.732;2022-10-31T16:25:52;17.10;99.90
59923;DHT22;45778;51.142;3.732;2022-10-31T16:28:23;17.00;99.90
59923;DHT22;45778;51.142;3.732;2022-10-31T16:30:51;16.90;99.90
59923;DHT22;45778;51.142;3.732;2022-10-31T16:33:36;16.70;99.90
59923;DHT22;45778;51.142;3.732;2022-10-31T16:38:57;16.50;99.90
59923;DHT22;45778;51.142;3.732;2022-10-31T16:41:24;16.30;99.90
59923;DHT22;45778;51.142;3.732;2022-10-31T16:43:51;16.30;99.90
59923;DHT22;45778;51.142;3.732;2022-10-31T16:46:27;16.30;99.90
59923;DHT22;45778;51.142;3.732;2022-10-31T16:48:53;16.30;99.90
59923;DHT22;45778;51.142;3.732;2022-10-31T16:51:19;16.20;99.90
59923;DHT22;45778;51.142;3.732;2022-10-31T16:53:45;16.20;99.90
59923;DHT22;45778;51.142;3.732;2022-10-31T16:56:20;16.10;99.90
59923;DHT22;45778;51.142;3.732;2022-10-31T16:58:47;16.00;99.90
59923;DHT22;45778;51.142;3.732;2022-10-31T17:01:12;16.00;99.90
59923;DHT22;45778;51.142;3.732;2022-10-31T17:03:38;16.00;99.90
59923;DHT22;45778;51.142;3.732;2022-10-31T17:06:04;16.10;99.90
59923;DHT22;45778;51.142;3.732;2022-10-31T17:08:30;16.00;99.90
59923;DHT22;45778;51.142;3.732;2022-10-31T17:10:56;15.90;99.90
59923;DHT22;45778;51.142;3.732;2022-10-31T17:13:25;15.90;99.90
59923;DHT22;45778;51.142;3.732;2022-10-31T17:15:59;15.80;99.90
59923;DHT22;45778;51.142;3.732;2022-10-31T17:18:25;15.80;99.90
59923;DHT22;45778;51.142;3.732;2022-10-31T17:20:55;15.80;99.90
59923;DHT22;45778;51.142;3.732;2022-10-31T17:23:22;15.70;99.90
59923;DHT22;45778;51.142;3.732;2022-10-31T17:25:47;15.70;99.90
59923;DHT22;45778;51.142;3.732;2022-10-31T17:28:14;15.70;99.90
59923;DHT22;45778;51.142;3.732;2022-10-31T17:30:41;15.70;99.90
59923;DHT22;45778;51.142;3.732;2022-10-31T17:33:13;15.60;99.90
59923;DHT22;45778;51.142;3.732;2022-10-31T17:35:42;15.50;99.90
59923;DHT22;45778;51.142;3.732;2022-10-31T17:38:09;15.50;99.90
59923;DHT22;45778;51.142;3.732;2022-10-31T17:40:37;15.20;99.90
59923;DHT22;45778;51.142;3.732;2022-10-31T17:43:02;15.40;99.90
59923;DHT22;45778;51.142;3.732;2022-10-31T17:45:28;15.40;99.90
59923;DHT22;45778;51.142;3.732;2022-10-31T17:47:54;15.40;99.90
59923;DHT22;45778;51.142;3.732;2022-10-31T17:50:23;15.50;99.90
59923;DHT22;45778;51.142;3.732;2022-10-31T17:52:49;15.40;99.90
59923;DHT22;45778;51.142;3.732;2022-10-31T17:55:15;15.40;99.90
59923;DHT22;45778;51.142;3.732;2022-10-31T17:57:41;15.40;99.90
59923;DHT22;45778;51.142;3.732;2022-10-31T18:00:17;15.30;99.90
59923;DHT22;45778;51.142;3.732;2022-10-31T18:02:43;15.30;99.90
59923;DHT22;45778;51.142;3.732;2022-10-31T18:05:09;15.30;99.90